sensor_id;sensor_type;location;lat;lon;timestamp;pressure;altitude;pressure_sealevel;temperature;humidity
45403;BME280;47427;51.976;5.326;2023-03-16T00:02:11;101722.59;;;4.26;85.92
45403;BME280;47427;51.976;5.326;2023-03-16T00:05:33;101733.88;;;4.26;85.96
45403;BME280;47427;51.976;5.326;2023-03-16T00:08:56;101732.16;;;4.27;86.63
45403;BME280;47427;51.976;5.326;2023-03-16T00:12:19;101727.97;;;4.29;87.04
45403;BME280;47427;51.976;5.326;2023-03-16T00:15:56;101712.28;;;4.27;87.22
45403;BME280;47427;51.976;5.326;2023-03-16T00:19:17;101702.72;;;4.26;87.43
45403;BME280;47427;51.976;5.326;2023-03-16T00:22:41;101711.50;;;4.28;88.01
45403;BME280;47427;51.976;5.326;2023-03-16T00:26:06;101706.31;;;4.28;88.81
45403;BME280;47427;51.976;5.326;2023-03-16T00:29:28;101700.88;;;4.25;88.61
45403;BME280;47427;51.976;5.326;2023-03-16T00:32:51;101695.00;;;4.28;89.20
45403;BME280;47427;51.976;5.326;2023-03-16T00:36:35;101689.03;;;4.29;89.56
45403;BME280;47427;51.976;5.326;2023-03-16T00:40:00;101691.72;;;4.30;89.84
45403;BME280;47427;51.976;5.326;2023-03-16T00:43:23;101688.00;;;4.27;90.61
45403;BME280;47427;51.976;5.326;2023-03-16T00:46:47;101678.63;;;4.29;90.73
45403;BME280;47427;51.976;5.326;2023-03-16T00:50:11;101682.50;;;4.22;91.60
45403;BME280;47427;51.976;5.326;2023-03-16T00:53:34;101683.81;;;4.29;91.62
45403;BME280;47427;51.976;5.326;2023-03-16T00:56:59;101673.44;;;4.29;91.86
45403;BME280;47427;51.976;5.326;2023-03-16T01:00:22;101670.13;;;4.31;92.20
45403;BME280;47427;51.976;5.326;2023-03-16T01:03:46;101664.34;;;4.36;92.32
45403;BME280;47427;51.976;5.326;2023-03-16T01:07:13;101656.63;;;4.37;92.17
45403;BME280;47427;51.976;5.326;2023-03-16T01:10:36;101657.53;;;4.38;92.83
45403;BME280;47427;51.976;5.326;2023-03-16T01:13:59;101640.66;;;4.31;93.54
45403;BME280;47427;51.976;5.326;2023-03-16T01:17:21;101650.94;;;4.29;93.79
45403;BME280;47427;51.976;5.326;2023-03-16T01:20:44;101642.38;;;4.30;94.25
45403;BME280;47427;51.976;5.326;2023-03-16T01:24:12;101622.97;;;4.25;95.40
45403;BME280;47427;51.976;5.326;2023-03-16T01:27:35;101632.75;;;4.29;95.65
45403;BME280;47427;51.976;5.326;2023-03-16T01:31:06;101636.94;;;4.27;95.36
45403;BME280;47427;51.976;5.326;2023-03-16T01:34:29;101635.34;;;4.29;95.94
45403;BME280;47427;51.976;5.326;2023-03-16T01:37:54;101625.56;;;4.25;96.42
45403;BME280;47427;51.976;5.326;2023-03-16T01:41:19;101615.41;;;4.28;96.47
45403;BME280;47427;51.976;5.326;2023-03-16T01:44:58;101618.41;;;4.21;97.76
45403;BME280;47427;51.976;5.326;2023-03-16T01:52:27;101614.47;;;4.28;98.53
45403;BME280;47427;51.976;5.326;2023-03-16T01:55:54;101605.91;;;4.29;98.77
45403;BME280;47427;51.976;5.326;2023-03-16T01:59:18;101603.59;;;4.33;98.43
45403;BME280;47427;51.976;5.326;2023-03-16T02:02:53;101595.81;;;4.33;98.59
45403;BME280;47427;51.976;5.326;2023-03-16T02:06:23;101590.09;;;4.39;98.68
45403;BME280;47427;51.976;5.326;2023-03-16T02:09:55;101590.69;;;4.48;98.21
45403;BME280;47427;51.976;5.326;2023-03-16T02:13:22;101568.88;;;4.46;98.71
45403;BME280;47427;51.976;5.326;2023-03-16T02:16:45;101568.38;;;4.52;99.07
45403;BME280;47427;51.976;5.326;2023-03-16T02:24:08;101568.03;;;4.61;98.86
45403;BME280;47427;51.976;5.326;2023-03-16T02:31:23;101549.19;;;4.50;99.52
45403;BME280;47427;51.976;5.326;2023-03-16T02:34:45;101556.66;;;4.59;99.55
45403;BME280;47427;51.976;5.326;2023-03-16T02:38:08;101559.34;;;4.60;99.98
45403;BME280;47427;51.976;5.326;2023-03-16T02:41:36;101555.47;;;4.53;100.00
45403;BME280;47427;51.976;5.326;2023-03-16T02:44:59;101554.38;;;4.50;100.00
45403;BME280;47427;51.976;5.326;2023-03-16T02:48:35;101557.88;;;4.50;100.00
45403;BME280;47427;51.976;5.326;2023-03-16T02:52:00;101562.56;;;4.56;100.00
45403;BME280;47427;51.976;5.326;2023-03-16T02:55:22;101566.34;;;4.61;100.00
45403;BME280;47427;51.976;5.326;2023-03-16T02:58:44;101569.72;;;4.60;100.00
45403;BME280;47427;51.976;5.326;2023-03-16T03:02:11;101575.81;;;4.61;100.00
45403;BME280;47427;51.976;5.326;2023-03-16T03:05:35;101564.47;;;4.59;100.00
45403;BME280;47427;51.976;5.326;2023-03-16T03:08:58;101567.13;;;4.60;100.00
45403;BME280;47427;51.976;5.326;2023-03-16T03:12:21;101568.53;;;4.55;100.00
45403;BME280;47427;51.976;5.326;2023-03-16T03:15:44;101558.06;;;4.53;100.00
45403;BME280;47427;51.976;5.326;2023-03-16T03:19:06;101554.66;;;4.54;100.00
45403;BME280;47427;51.976;5.326;2023-03-16T03:22:30;101548.41;;;4.51;100.00
45403;BME280;47427;51.976;5.326;2023-03-16T03:25:57;101544.50;;;4.44;100.00
45403;BME280;47427;51.976;5.326;2023-03-16T03:29:19;101542.44;;;4.39;100.00
45403;BME280;47427;51.976;5.326;2023-03-16T03:32:42;101536.94;;;4.34;100.00
45403;BME280;47427;51.976;5.326;2023-03-16T03:36:04;101537.25;;;4.25;100.00
45403;BME280;47427;51.976;5.326;2023-03-16T03:39:30;101533.69;;;4.23;100.00
45403;BME280;47427;51.976;5.326;2023-03-16T03:42:53;101522.19;;;4.20;100.00
45403;BME280;47427;51.976;5.326;2023-03-16T03:46:15;101528.28;;;4.20;100.00
45403;BME280;47427;51.976;5.326;2023-03-16T03:49:37;101518.59;;;4.18;100.00
45403;BME280;47427;51.976;5.326;2023-03-16T03:52:59;101526.19;;;4.15;100.00
45403;BME280;47427;51.976;5.326;2023-03-16T03:56:25;101522.41;;;4.09;100.00
45403;BME280;47427;51.976;5.326;2023-03-16T03:59:48;101513.84;;;4.10;100.00
45403;BME280;47427;51.976;5.326;2023-03-16T04:03:28;101515.63;;;4.11;100.00
45403;BME280;47427;51.976;5.326;2023-03-16T04:06:49;101515.31;;;4.07;100.00
45403;BME280;47427;51.976;5.326;2023-03-16T04:10:12;101509.94;;;4.04;100.00
45403;BME280;47427;51.976;5.326;2023-03-16T04:13:36;101506.06;;;3.97;100.00
45403;BME280;47427;51.976;5.326;2023-03-16T04:16:58;101498.91;;;3.93;100.00
45403;BME280;47427;51.976;5.326;2023-03-16T04:20:21;101508.28;;;3.91;100.00
45403;BME280;47427;51.976;5.326;2023-03-16T04:23:44;101501.00;;;3.85;100.00
45403;BME280;47427;51.976;5.326;2023-03-16T04:27:06;101492.50;;;3.88;100.00
45403;BME280;47427;51.976;5.326;2023-03-16T04:30:29;101493.91;;;3.83;100.00
45403;BME280;47427;51.976;5.326;2023-03-16T04:34:00;101495.88;;;3.87;100.00
45403;BME280;47427;51.976;5.326;2023-03-16T04:37:24;101503.91;;;3.90;100.00
45403;BME280;47427;51.976;5.326;2023-03-16T04:40:48;101484.09;;;3.92;100.00
45403;BME280;47427;51.976;5.326;2023-03-16T04:44:13;101485.88;;;4.06;100.00
45403;BME280;47427;51.976;5.326;2023-03-16T04:47:37;101482.88;;;4.13;100.00
45403;BME280;47427;51.976;5.326;2023-03-16T04:50:59;101476.78;;;4.13;100.00
45403;BME280;47427;51.976;5.326;2023-03-16T04:54:46;101477.31;;;4.22;100.00
45403;BME280;47427;51.976;5.326;2023-03-16T04:58:11;101479.84;;;4.21;100.00
45403;BME280;47427;51.976;5.326;2023-03-16T05:01:34;101472.84;;;4.20;100.00
45403;BME280;47427;51.976;5.326;2023-03-16T05:04:58;101471.25;;;4.22;100.00
45403;BME280;47427;51.976;5.326;2023-03-16T05:08:20;101480.56;;;4.18;100.00
45403;BME280;47427;51.976;5.326;2023-03-16T05:11:45;101477.16;;;4.19;100.00
45403;BME280;47427;51.976;5.326;2023-03-16T05:15:09;101479.75;;;4.19;100.00
45403;BME280;47427;51.976;5.326;2023-03-16T05:18:44;101472.94;;;4.21;100.00
45403;BME280;47427;51.976;5.326;2023-03-16T05:22:07;101479.75;;;4.19;100.00
45403;BME280;47427;51.976;5.326;2023-03-16T05:25:29;101483.22;;;4.20;100.00
45403;BME280;47427;51.976;5.326;2023-03-16T05:28:59;101480.75;;;4.21;100.00
45403;BME280;47427;51.976;5.326;2023-03-16T05:32:23;101473.47;;;4.16;100.00
45403;BME280;47427;51.976;5.326;2023-03-16T05:35:45;101471.59;;;4.13;100.00
45403;BME280;47427;51.976;5.326;2023-03-16T05:39:08;101468.47;;;4.19;100.00
45403;BME280;47427;51.976;5.326;2023-03-16T05:42:33;101471.59;;;4.13;100.00
45403;BME280;47427;51.976;5.326;2023-03-16T05:45:56;101467.47;;;4.17;100.00
45403;BME280;47427;51.976;5.326;2023-03-16T05:49:20;101463.88;;;4.15;100.00
45403;BME280;47427;51.976;5.326;2023-03-16T05:52:43;101463.69;;;4.11;100.00
45403;BME280;47427;51.976;5.326;2023-03-16T05:56:13;101458.19;;;4.07;100.00
45403;BME280;47427;51.976;5.326;2023-03-16T05:59:37;101463.88;;;4.15;100.00
45403;BME280;47427;51.976;5.326;2023-03-16T06:03:00;101466.56;;;4.16;100.00
45403;BME280;47427;51.976;5.326;2023-03-16T06:06:28;101447.75;;;4.20;100.00
45403;BME280;47427;51.976;5.326;2023-03-16T06:10:03;101459.06;;;4.21;100.00
45403;BME280;47427;51.976;5.326;2023-03-16T06:13:26;101451.63;;;4.27;100.00
45403;BME280;47427;51.976;5.326;2023-03-16T06:16:48;101459.44;;;4.27;100.00
45403;BME280;47427;51.976;5.326;2023-03-16T06:20:12;101453.00;;;4.35;100.00
45403;BME280;47427;51.976;5.326;2023-03-16T06:23:37;101453.38;;;4.41;100.00
45403;BME280;47427;51.976;5.326;2023-03-16T06:27:01;101440.16;;;4.51;100.00
45403;BME280;47427;51.976;5.326;2023-03-16T06:30:29;101441.13;;;4.53;100.00
45403;BME280;47427;51.976;5.326;2023-03-16T06:33:51;101438.06;;;4.61;100.00
45403;BME280;47427;51.976;5.326;2023-03-16T06:37:33;101438.75;;;4.71;100.00
45403;BME280;47427;51.976;5.326;2023-03-16T06:41:00;101436.56;;;4.64;100.00
45403;BME280;47427;51.976;5.326;2023-03-16T06:44:22;101444.19;;;4.61;100.00
45403;BME280;47427;51.976;5.326;2023-03-16T06:48:07;101431.81;;;4.57;100.00
45403;BME280;47427;51.976;5.326;2023-03-16T06:51:51;101432.00;;;4.60;100.00
45403;BME280;47427;51.976;5.326;2023-03-16T06:55:14;101434.41;;;4.57;100.00
45403;BME280;47427;51.976;5.326;2023-03-16T06:58:40;101429.09;;;4.55;100.00
45403;BME280;47427;51.976;5.326;2023-03-16T07:02:03;101430.09;;;4.57;100.00
45403;BME280;47427;51.976;5.326;2023-03-16T07:05:25;101426.50;;;4.55;100.00
45403;BME280;47427;51.976;5.326;2023-03-16T07:08:48;101420.34;;;4.68;100.00
45403;BME280;47427;51.976;5.326;2023-03-16T07:12:12;101415.78;;;4.79;100.00
45403;BME280;47427;51.976;5.326;2023-03-16T07:15:34;101419.44;;;4.83;100.00
45403;BME280;47427;51.976;5.326;2023-03-16T07:18:57;101414.19;;;4.81;100.00
45403;BME280;47427;51.976;5.326;2023-03-16T07:22:19;101415.59;;;4.76;100.00
45403;BME280;47427;51.976;5.326;2023-03-16T07:25:42;101409.22;;;4.71;100.00
45403;BME280;47427;51.976;5.326;2023-03-16T07:29:07;101411.03;;;4.72;100.00
45403;BME280;47427;51.976;5.326;2023-03-16T07:32:30;101411.66;;;4.68;100.00
45403;BME280;47427;51.976;5.326;2023-03-16T07:35:54;101411.09;;;4.73;100.00
45403;BME280;47427;51.976;5.326;2023-03-16T07:39:17;101407.16;;;4.80;100.00
45403;BME280;47427;51.976;5.326;2023-03-16T07:42:40;101409.78;;;4.80;100.00
45403;BME280;47427;51.976;5.326;2023-03-16T07:46:05;101408.63;;;4.90;100.00
45403;BME280;47427;51.976;5.326;2023-03-16T07:49:28;101420.44;;;4.85;100.00
45403;BME280;47427;51.976;5.326;2023-03-16T07:52:52;101415.78;;;4.94;100.00
45403;BME280;47427;51.976;5.326;2023-03-16T07:56:15;101421.16;;;4.97;100.00
45403;BME280;47427;51.976;5.326;2023-03-16T07:59:41;101412.25;;;5.08;100.00
45403;BME280;47427;51.976;5.326;2023-03-16T08:03:06;101412.88;;;5.19;100.00
45403;BME280;47427;51.976;5.326;2023-03-16T08:06:29;101403.69;;;5.40;100.00
45403;BME280;47427;51.976;5.326;2023-03-16T08:09:52;101396.31;;;5.64;100.00
45403;BME280;47427;51.976;5.326;2023-03-16T08:13:20;101383.91;;;5.92;100.00
45403;BME280;47427;51.976;5.326;2023-03-16T08:16:44;101377.72;;;5.90;100.00
45403;BME280;47427;51.976;5.326;2023-03-16T08:20:06;101387.78;;;5.98;100.00
45403;BME280;47427;51.976;5.326;2023-03-16T08:23:36;101386.91;;;5.98;100.00
45403;BME280;47427;51.976;5.326;2023-03-16T08:27:01;101390.53;;;6.01;100.00
45403;BME280;47427;51.976;5.326;2023-03-16T08:30:26;101383.28;;;6.12;100.00
45403;BME280;47427;51.976;5.326;2023-03-16T08:34:06;101404.97;;;6.11;100.00
45403;BME280;47427;51.976;5.326;2023-03-16T08:37:34;101402.41;;;6.13;100.00
45403;BME280;47427;51.976;5.326;2023-03-16T08:40:56;101395.09;;;6.22;100.00
45403;BME280;47427;51.976;5.326;2023-03-16T08:44:18;101409.41;;;6.30;100.00
45403;BME280;47427;51.976;5.326;2023-03-16T08:47:43;101403.16;;;6.26;100.00
45403;BME280;47427;51.976;5.326;2023-03-16T08:51:07;101396.38;;;6.30;100.00
45403;BME280;47427;51.976;5.326;2023-03-16T08:54:49;101381.13;;;6.38;100.00
45403;BME280;47427;51.976;5.326;2023-03-16T08:58:12;101397.91;;;6.43;100.00
45403;BME280;47427;51.976;5.326;2023-03-16T09:01:35;101388.91;;;6.36;100.00
45403;BME280;47427;51.976;5.326;2023-03-16T09:04:58;101397.47;;;6.34;100.00
45403;BME280;47427;51.976;5.326;2023-03-16T09:08:20;101393.88;;;6.32;100.00
45403;BME280;47427;51.976;5.326;2023-03-16T09:11:43;101378.38;;;6.35;100.00
45403;BME280;47427;51.976;5.326;2023-03-16T09:15:10;101386.19;;;6.51;100.00
45403;BME280;47427;51.976;5.326;2023-03-16T09:18:34;101379.19;;;6.68;100.00
45403;BME280;47427;51.976;5.326;2023-03-16T09:21:57;101379.31;;;6.87;100.00
45403;BME280;47427;51.976;5.326;2023-03-16T09:25:19;101371.63;;;7.26;100.00
45403;BME280;47427;51.976;5.326;2023-03-16T09:28:42;101385.53;;;7.63;100.00
45403;BME280;47427;51.976;5.326;2023-03-16T09:32:06;101374.44;;;8.06;100.00
45403;BME280;47427;51.976;5.326;2023-03-16T09:35:27;101378.00;;;8.08;100.00
45403;BME280;47427;51.976;5.326;2023-03-16T09:38:50;101373.06;;;8.14;100.00
45403;BME280;47427;51.976;5.326;2023-03-16T09:42:37;101380.97;;;8.15;100.00
45403;BME280;47427;51.976;5.326;2023-03-16T09:49:46;101362.41;;;8.90;96.32
45403;BME280;47427;51.976;5.326;2023-03-16T09:53:30;101365.75;;;9.29;93.58
45403;BME280;47427;51.976;5.326;2023-03-16T09:56:56;101361.44;;;9.54;89.91
45403;BME280;47427;51.976;5.326;2023-03-16T10:00:35;101349.56;;;9.86;87.61
45403;BME280;47427;51.976;5.326;2023-03-16T10:04:13;101347.94;;;9.90;86.21
45403;BME280;47427;51.976;5.326;2023-03-16T10:11:30;101345.91;;;12.25;65.32
45403;BME280;47427;51.976;5.326;2023-03-16T10:15:30;101342.41;;;11.93;64.35
45403;BME280;47427;51.976;5.326;2023-03-16T10:19:09;101351.94;;;11.89;65.11
45403;BME280;47427;51.976;5.326;2023-03-16T10:22:37;101341.75;;;11.71;63.39
45403;BME280;47427;51.976;5.326;2023-03-16T10:26:12;101337.81;;;13.58;58.33
45403;BME280;47427;51.976;5.326;2023-03-16T10:29:35;101331.31;;;13.83;56.79
45403;BME280;47427;51.976;5.326;2023-03-16T10:33:16;101328.28;;;14.09;55.24
45403;BME280;47427;51.976;5.326;2023-03-16T10:36:42;101319.97;;;16.08;50.84
45403;BME280;47427;51.976;5.326;2023-03-16T10:40:11;101315.81;;;17.46;47.83
45403;BME280;47427;51.976;5.326;2023-03-16T10:43:34;101297.53;;;16.65;45.94
45403;BME280;47427;51.976;5.326;2023-03-16T10:47:02;101308.88;;;15.06;49.51
45403;BME280;47427;51.976;5.326;2023-03-16T10:50:49;101305.56;;;14.16;52.93
45403;BME280;47427;51.976;5.326;2023-03-16T10:54:34;101306.25;;;13.23;53.32
45403;BME280;47427;51.976;5.326;2023-03-16T10:57:59;101289.03;;;13.00;55.98
45403;BME280;47427;51.976;5.326;2023-03-16T11:01:28;101281.16;;;12.65;57.37
45403;BME280;47427;51.976;5.326;2023-03-16T11:04:49;101281.53;;;12.44;58.24
45403;BME280;47427;51.976;5.326;2023-03-16T11:08:19;101290.84;;;11.98;57.31
45403;BME280;47427;51.976;5.326;2023-03-16T11:11:49;101281.69;;;11.85;58.92
45403;BME280;47427;51.976;5.326;2023-03-16T11:15:12;101290.78;;;11.97;59.24
45403;BME280;47427;51.976;5.326;2023-03-16T11:18:40;101282.88;;;11.95;59.91
45403;BME280;47427;51.976;5.326;2023-03-16T11:22:13;101268.06;;;11.99;59.49
45403;BME280;47427;51.976;5.326;2023-03-16T11:25:44;101258.94;;;12.19;60.37
45403;BME280;47427;51.976;5.326;2023-03-16T11:33:08;101244.63;;;12.43;57.37
45403;BME280;47427;51.976;5.326;2023-03-16T11:36:54;101236.66;;;12.76;56.61
45403;BME280;47427;51.976;5.326;2023-03-16T11:40:38;101253.19;;;13.46;57.35
45403;BME280;47427;51.976;5.326;2023-03-16T11:44:36;101241.34;;;13.70;53.75
45403;BME280;47427;51.976;5.326;2023-03-16T12:00:09;101229.28;;;14.84;49.42
45403;BME280;47427;51.976;5.326;2023-03-16T12:04:01;101195.38;;;14.56;49.32
45403;BME280;47427;51.976;5.326;2023-03-16T12:19:02;101196.00;;;20.10;36.77
45403;BME280;47427;51.976;5.326;2023-03-16T12:22:43;101198.66;;;21.06;36.08
45403;BME280;47427;51.976;5.326;2023-03-16T12:26:06;101192.06;;;22.01;34.05
45403;BME280;47427;51.976;5.326;2023-03-16T12:30:20;101188.19;;;22.73;31.93
45403;BME280;47427;51.976;5.326;2023-03-16T12:34:21;101173.22;;;19.63;35.03
45403;BME280;47427;51.976;5.326;2023-03-16T12:41:42;101164.41;;;20.69;32.78
45403;BME280;47427;51.976;5.326;2023-03-16T12:49:01;101156.94;;;22.76;31.36
45403;BME280;47427;51.976;5.326;2023-03-16T12:52:25;101163.94;;;22.33;32.15
45403;BME280;47427;51.976;5.326;2023-03-16T12:55:46;101142.38;;;21.26;31.07
45403;BME280;47427;51.976;5.326;2023-03-16T12:59:20;101114.81;;;21.24;31.45
45403;BME280;47427;51.976;5.326;2023-03-16T13:02:50;101128.69;;;20.84;30.95
45403;BME280;47427;51.976;5.326;2023-03-16T13:06:35;101121.53;;;21.56;30.84
45403;BME280;47427;51.976;5.326;2023-03-16T13:10:09;101114.25;;;21.00;31.94
45403;BME280;47427;51.976;5.326;2023-03-16T13:17:26;101091.13;;;20.18;33.24
45403;BME280;47427;51.976;5.326;2023-03-16T13:20:58;101091.78;;;21.20;31.86
45403;BME280;47427;51.976;5.326;2023-03-16T13:24:34;101098.97;;;20.36;33.18
45403;BME280;47427;51.976;5.326;2023-03-16T13:27:58;101101.50;;;19.39;31.34
45403;BME280;47427;51.976;5.326;2023-03-16T13:31:32;101091.09;;;21.68;29.22
45403;BME280;47427;51.976;5.326;2023-03-16T13:35:00;101091.22;;;21.60;30.00
45403;BME280;47427;51.976;5.326;2023-03-16T13:38:25;101090.59;;;21.42;29.30
45403;BME280;47427;51.976;5.326;2023-03-16T13:42:02;101082.34;;;20.93;29.05
45403;BME280;47427;51.976;5.326;2023-03-16T13:45:37;101067.00;;;21.12;28.96
45403;BME280;47427;51.976;5.326;2023-03-16T13:48:59;101067.97;;;21.05;28.50
45403;BME280;47427;51.976;5.326;2023-03-16T13:52:29;101057.91;;;20.55;29.05
45403;BME280;47427;51.976;5.326;2023-03-16T13:55:52;101052.56;;;20.54;30.30
45403;BME280;47427;51.976;5.326;2023-03-16T13:59:16;101045.53;;;21.18;28.66
45403;BME280;47427;51.976;5.326;2023-03-16T14:02:44;101037.09;;;20.85;29.02
45403;BME280;47427;51.976;5.326;2023-03-16T14:10:08;101055.53;;;21.66;27.71
45403;BME280;47427;51.976;5.326;2023-03-16T14:13:53;101024.31;;;21.12;28.67
45403;BME280;47427;51.976;5.326;2023-03-16T14:17:19;101006.28;;;20.63;28.93
45403;BME280;47427;51.976;5.326;2023-03-16T14:20:41;101026.72;;;20.62;29.58
45403;BME280;47427;51.976;5.326;2023-03-16T14:24:06;101015.88;;;20.79;29.72
45403;BME280;47427;51.976;5.326;2023-03-16T14:27:46;101025.91;;;20.54;29.77
45403;BME280;47427;51.976;5.326;2023-03-16T14:31:42;101008.06;;;20.61;30.00
45403;BME280;47427;51.976;5.326;2023-03-16T14:35:14;101007.91;;;20.74;31.11
45403;BME280;47427;51.976;5.326;2023-03-16T14:38:36;101000.94;;;21.82;30.29
45403;BME280;47427;51.976;5.326;2023-03-16T14:45:44;100999.84;;;20.79;31.37
45403;BME280;47427;51.976;5.326;2023-03-16T14:52:49;100981.63;;;20.44;31.51
45403;BME280;47427;51.976;5.326;2023-03-16T14:56:12;100977.22;;;20.38;32.20
45403;BME280;47427;51.976;5.326;2023-03-16T14:59:34;100980.13;;;20.20;32.77
45403;BME280;47427;51.976;5.326;2023-03-16T15:03:05;100983.69;;;20.17;33.15
45403;BME280;47427;51.976;5.326;2023-03-16T15:06:28;100981.28;;;18.75;34.83
45403;BME280;47427;51.976;5.326;2023-03-16T15:09:55;100971.81;;;17.24;36.83
45403;BME280;47427;51.976;5.326;2023-03-16T15:13:21;100951.50;;;17.80;36.37
45403;BME280;47427;51.976;5.326;2023-03-16T15:16:55;100949.63;;;16.71;38.46
45403;BME280;47427;51.976;5.326;2023-03-16T15:20:22;100951.50;;;17.67;37.21
45403;BME280;47427;51.976;5.326;2023-03-16T15:23:47;100940.47;;;18.81;36.08
45403;BME280;47427;51.976;5.326;2023-03-16T15:27:19;100936.44;;;19.46;35.30
45403;BME280;47427;51.976;5.326;2023-03-16T15:30:43;100938.75;;;18.77;35.02
45403;BME280;47427;51.976;5.326;2023-03-16T15:34:05;100934.75;;;19.38;34.34
45403;BME280;47427;51.976;5.326;2023-03-16T15:37:27;100925.09;;;19.26;35.03
45403;BME280;47427;51.976;5.326;2023-03-16T15:40:54;100924.56;;;18.73;35.28
45403;BME280;47427;51.976;5.326;2023-03-16T15:44:15;100926.59;;;18.17;36.46
45403;BME280;47427;51.976;5.326;2023-03-16T15:47:38;100916.09;;;17.82;37.89
45403;BME280;47427;51.976;5.326;2023-03-16T15:51:18;100925.81;;;17.89;36.94
45403;BME280;47427;51.976;5.326;2023-03-16T15:54:41;100922.19;;;18.15;37.49
45403;BME280;47427;51.976;5.326;2023-03-16T15:58:05;100926.66;;;18.04;38.12
45403;BME280;47427;51.976;5.326;2023-03-16T16:01:44;100918.78;;;17.61;38.09
45403;BME280;47427;51.976;5.326;2023-03-16T16:05:08;100931.16;;;17.55;39.08
45403;BME280;47427;51.976;5.326;2023-03-16T16:08:31;100916.88;;;18.15;37.87
45403;BME280;47427;51.976;5.326;2023-03-16T16:11:52;100914.31;;;17.73;39.53
45403;BME280;47427;51.976;5.326;2023-03-16T16:15:34;100902.72;;;18.14;38.55
45403;BME280;47427;51.976;5.326;2023-03-16T16:18:58;100894.00;;;17.63;37.03
45403;BME280;47427;51.976;5.326;2023-03-16T16:22:20;100896.72;;;17.20;35.23
45403;BME280;47427;51.976;5.326;2023-03-16T16:25:49;100898.34;;;16.51;36.46
45403;BME280;47427;51.976;5.326;2023-03-16T16:29:24;100904.47;;;16.28;37.76
45403;BME280;47427;51.976;5.326;2023-03-16T16:33:01;100896.38;;;15.94;38.88
45403;BME280;47427;51.976;5.326;2023-03-16T16:36:26;100907.88;;;15.98;38.94
45403;BME280;47427;51.976;5.326;2023-03-16T16:39:53;100898.91;;;15.74;39.22
45403;BME280;47427;51.976;5.326;2023-03-16T16:43:41;100898.78;;;15.59;40.01
45403;BME280;47427;51.976;5.326;2023-03-16T16:47:07;100899.56;;;15.39;39.96
45403;BME280;47427;51.976;5.326;2023-03-16T16:50:40;100898.28;;;14.91;41.12
45403;BME280;47427;51.976;5.326;2023-03-16T16:54:01;100905.84;;;14.56;41.98
45403;BME280;47427;51.976;5.326;2023-03-16T16:57:34;100910.63;;;14.18;43.91
45403;BME280;47427;51.976;5.326;2023-03-16T17:00:58;100905.63;;;13.71;46.99
45403;BME280;47427;51.976;5.326;2023-03-16T17:04:22;100905.97;;;13.36;48.88
45403;BME280;47427;51.976;5.326;2023-03-16T17:07:45;100905.34;;;13.00;50.05
45403;BME280;47427;51.976;5.326;2023-03-16T17:11:53;100903.88;;;12.66;50.96
45403;BME280;47427;51.976;5.326;2023-03-16T17:15:33;100897.25;;;12.41;52.06
45403;BME280;47427;51.976;5.326;2023-03-16T17:19:29;100906.41;;;12.16;52.99
45403;BME280;47427;51.976;5.326;2023-03-16T17:22:52;100905.94;;;11.95;53.24
45403;BME280;47427;51.976;5.326;2023-03-16T17:26:29;100908.19;;;11.79;53.80
45403;BME280;47427;51.976;5.326;2023-03-16T17:29:52;100902.66;;;11.67;54.83
45403;BME280;47427;51.976;5.326;2023-03-16T17:33:16;100907.50;;;11.48;55.41
45403;BME280;47427;51.976;5.326;2023-03-16T17:36:40;100900.13;;;11.32;55.98
45403;BME280;47427;51.976;5.326;2023-03-16T17:40:02;100896.09;;;11.10;56.60
45403;BME280;47427;51.976;5.326;2023-03-16T17:43:27;100907.09;;;10.95;57.31
45403;BME280;47427;51.976;5.326;2023-03-16T17:46:50;100890.22;;;10.85;57.89
45403;BME280;47427;51.976;5.326;2023-03-16T17:50:26;100887.25;;;10.72;58.28
45403;BME280;47427;51.976;5.326;2023-03-16T17:53:51;100889.41;;;10.55;58.60
45403;BME280;47427;51.976;5.326;2023-03-16T17:57:34;100887.38;;;10.45;59.49
45403;BME280;47427;51.976;5.326;2023-03-16T18:00:56;100882.09;;;10.43;58.99
45403;BME280;47427;51.976;5.326;2023-03-16T18:04:23;100878.13;;;10.27;59.93
45403;BME280;47427;51.976;5.326;2023-03-16T18:07:46;100891.81;;;10.17;60.89
45403;BME280;47427;51.976;5.326;2023-03-16T18:11:34;100876.94;;;10.16;61.59
45403;BME280;47427;51.976;5.326;2023-03-16T18:14:57;100882.41;;;10.24;62.03
45403;BME280;47427;51.976;5.326;2023-03-16T18:18:26;100883.06;;;10.16;62.56
45403;BME280;47427;51.976;5.326;2023-03-16T18:21:50;100885.53;;;10.10;64.21
45403;BME280;47427;51.976;5.326;2023-03-16T18:25:44;100896.56;;;9.98;64.88
45403;BME280;47427;51.976;5.326;2023-03-16T18:29:25;100890.22;;;9.92;65.73
45403;BME280;47427;51.976;5.326;2023-03-16T18:32:49;100881.31;;;9.85;66.06
45403;BME280;47427;51.976;5.326;2023-03-16T18:36:26;100883.78;;;9.81;66.35
45403;BME280;47427;51.976;5.326;2023-03-16T18:39:50;100897.63;;;9.76;67.08
45403;BME280;47427;51.976;5.326;2023-03-16T18:43:16;100903.66;;;9.72;67.98
45403;BME280;47427;51.976;5.326;2023-03-16T18:46:38;100893.75;;;9.64;68.30
45403;BME280;47427;51.976;5.326;2023-03-16T18:50:01;100892.56;;;9.54;68.57
45403;BME280;47427;51.976;5.326;2023-03-16T18:53:30;100887.19;;;9.49;68.89
45403;BME280;47427;51.976;5.326;2023-03-16T18:56:55;100884.31;;;9.42;69.03
45403;BME280;47427;51.976;5.326;2023-03-16T19:00:26;100867.34;;;9.29;69.83
45403;BME280;47427;51.976;5.326;2023-03-16T19:03:51;100876.06;;;9.28;69.70
45403;BME280;47427;51.976;5.326;2023-03-16T19:07:33;100880.44;;;9.29;69.68
45403;BME280;47427;51.976;5.326;2023-03-16T19:11:00;100877.34;;;9.14;69.49
45403;BME280;47427;51.976;5.326;2023-03-16T19:14:41;100881.13;;;8.96;70.94
45403;BME280;47427;51.976;5.326;2023-03-16T19:18:03;100875.31;;;9.05;70.49
45403;BME280;47427;51.976;5.326;2023-03-16T19:21:25;100873.16;;;8.92;70.65